Main page
METAR-TAF:

METAR-TAF

Airports :

Aberdeen Airport

Aberdeen, Scotland

latitude: 57-12N, longitude: 002-13W, elevation: 65 m

Current weather observation

The report was made 31 minutes ago, at 01:20 UTC
Wind 11 kt from the West/Southwest
Temperature 4°C
Humidity 65%
Pressure 998 hPa
Visibility 10 km or more

METAR: EGPD 180120Z AUTO 25011KT 9999 NCD 04/M02 Q0998 NOSIG

Time: 01:51 (01:51 UTC)

Forecast

The report was made 2 hours and 54 minutes ago, at 22:57 UTC
Forecast valid from 18 at 00 UTC to 18 at 24 UTC
Wind 9 kt from the Southwest
Visibility 10 km or more
Few clouds at a height of 2500 ft
Probability 30% :
Temporary
from 18 at 00 UTC to 18 at 12 UTC
Wind 15 kt from the West/Southwest with gusts up to 25 kt
Probability 40% :
Temporary
from 18 at 22 UTC to 18 at 24 UTC
Wind 16 kt from the West with gusts up to 28 kt
Visibility: 6000 m
rain showers, snow

TAF: EGPD 172257Z 1800/1824 23009KT 9999 FEW025 PROB30 TEMPO 1800/1812 24015G25KT PROB40 TEMPO 1822/1824 26016G28KT 6000 SHRASN

Weather observations and forecasts of more than 4000 airports (METAR and TAF reports).

The available stations are represented by yellow and red dots on the map.

Hover mouse over dot to see the name of the station.

Then click to see weather observations and forecasts.

To change the map : click on the green buttons with a black cross to zoom in, on the green button with a dash to zoom out, or on the green arrows for adjacent maps.


METAR-TAF: